sensor_id;sensor_type;location;lat;lon;timestamp;P1;durP1;ratioP1;P2;durP2;ratioP2
51686;SDS011;37774;52.192;4.584;2023-06-05T00:00:46;12.20;;;4.10;;
51686;SDS011;37774;52.192;4.584;2023-06-05T00:03:32;6.32;;;3.83;;
51686;SDS011;37774;52.192;4.584;2023-06-05T00:06:18;13.50;;;4.88;;
51686;SDS011;37774;52.192;4.584;2023-06-05T00:09:05;9.35;;;4.70;;
51686;SDS011;37774;52.192;4.584;2023-06-05T00:11:51;9.35;;;4.88;;
51686;SDS011;37774;52.192;4.584;2023-06-05T00:14:36;7.30;;;4.50;;
51686;SDS011;37774;52.192;4.584;2023-06-05T00:17:22;7.53;;;4.03;;
51686;SDS011;37774;52.192;4.584;2023-06-05T00:20:08;10.18;;;5.00;;
51686;SDS011;37774;52.192;4.584;2023-06-05T00:22:54;15.88;;;4.65;;
51686;SDS011;37774;52.192;4.584;2023-06-05T00:25:41;14.43;;;4.70;;
51686;SDS011;37774;52.192;4.584;2023-06-05T00:28:26;17.58;;;5.32;;
51686;SDS011;37774;52.192;4.584;2023-06-05T00:31:12;12.77;;;5.22;;
51686;SDS011;37774;52.192;4.584;2023-06-05T00:33:58;9.50;;;5.30;;
51686;SDS011;37774;52.192;4.584;2023-06-05T00:36:43;13.93;;;5.50;;
51686;SDS011;37774;52.192;4.584;2023-06-05T00:39:29;15.85;;;5.47;;
51686;SDS011;37774;52.192;4.584;2023-06-05T00:42:16;12.82;;;5.13;;
51686;SDS011;37774;52.192;4.584;2023-06-05T00:45:01;10.73;;;4.25;;
51686;SDS011;37774;52.192;4.584;2023-06-05T00:47:47;11.40;;;5.25;;
51686;SDS011;37774;52.192;4.584;2023-06-05T00:50:32;12.82;;;6.05;;
51686;SDS011;37774;52.192;4.584;2023-06-05T00:53:20;14.38;;;5.05;;
51686;SDS011;37774;52.192;4.584;2023-06-05T00:56:06;12.48;;;5.53;;
51686;SDS011;37774;52.192;4.584;2023-06-05T00:58:53;14.18;;;5.70;;
51686;SDS011;37774;52.192;4.584;2023-06-05T01:01:41;17.25;;;6.13;;
51686;SDS011;37774;52.192;4.584;2023-06-05T01:04:27;13.68;;;6.05;;
51686;SDS011;37774;52.192;4.584;2023-06-05T01:07:12;15.88;;;5.72;;
51686;SDS011;37774;52.192;4.584;2023-06-05T01:09:59;16.25;;;5.82;;
51686;SDS011;37774;52.192;4.584;2023-06-05T01:12:46;16.43;;;6.83;;
51686;SDS011;37774;52.192;4.584;2023-06-05T01:15:39;12.70;;;5.95;;
51686;SDS011;37774;52.192;4.584;2023-06-05T01:18:25;14.52;;;6.10;;
51686;SDS011;37774;52.192;4.584;2023-06-05T01:21:12;11.63;;;5.78;;
51686;SDS011;37774;52.192;4.584;2023-06-05T01:24:02;14.30;;;6.63;;
51686;SDS011;37774;52.192;4.584;2023-06-05T01:26:53;15.93;;;5.70;;
51686;SDS011;37774;52.192;4.584;2023-06-05T01:32:37;11.43;;;5.88;;
51686;SDS011;37774;52.192;4.584;2023-06-05T01:35:29;17.25;;;7.00;;
51686;SDS011;37774;52.192;4.584;2023-06-05T01:38:17;12.80;;;6.63;;
51686;SDS011;37774;52.192;4.584;2023-06-05T01:43:51;13.45;;;7.00;;
51686;SDS011;37774;52.192;4.584;2023-06-05T01:46:38;13.05;;;5.80;;
51686;SDS011;37774;52.192;4.584;2023-06-05T01:49:24;14.25;;;6.30;;
51686;SDS011;37774;52.192;4.584;2023-06-05T01:52:10;20.58;;;6.18;;
51686;SDS011;37774;52.192;4.584;2023-06-05T01:54:55;19.95;;;7.25;;
51686;SDS011;37774;52.192;4.584;2023-06-05T01:57:44;14.40;;;6.20;;
51686;SDS011;37774;52.192;4.584;2023-06-05T02:00:30;13.05;;;6.47;;
51686;SDS011;37774;52.192;4.584;2023-06-05T02:03:15;15.75;;;6.95;;
51686;SDS011;37774;52.192;4.584;2023-06-05T02:06:01;12.80;;;6.45;;
51686;SDS011;37774;52.192;4.584;2023-06-05T02:08:47;16.35;;;6.70;;
51686;SDS011;37774;52.192;4.584;2023-06-05T02:11:32;17.88;;;7.43;;
51686;SDS011;37774;52.192;4.584;2023-06-05T02:14:19;16.02;;;6.40;;
51686;SDS011;37774;52.192;4.584;2023-06-05T02:17:06;15.57;;;6.65;;
51686;SDS011;37774;52.192;4.584;2023-06-05T02:19:53;12.25;;;5.75;;
51686;SDS011;37774;52.192;4.584;2023-06-05T02:22:38;15.15;;;6.40;;
51686;SDS011;37774;52.192;4.584;2023-06-05T02:25:25;17.23;;;7.53;;
51686;SDS011;37774;52.192;4.584;2023-06-05T02:28:10;17.15;;;6.53;;
51686;SDS011;37774;52.192;4.584;2023-06-05T02:30:58;15.13;;;6.82;;
51686;SDS011;37774;52.192;4.584;2023-06-05T02:33:45;16.15;;;6.85;;
51686;SDS011;37774;52.192;4.584;2023-06-05T02:36:30;15.60;;;6.50;;
51686;SDS011;37774;52.192;4.584;2023-06-05T02:39:16;14.45;;;6.47;;
51686;SDS011;37774;52.192;4.584;2023-06-05T02:42:02;16.70;;;6.45;;
51686;SDS011;37774;52.192;4.584;2023-06-05T02:44:47;14.65;;;6.57;;
51686;SDS011;37774;52.192;4.584;2023-06-05T02:47:34;12.45;;;5.68;;
51686;SDS011;37774;52.192;4.584;2023-06-05T02:50:20;15.27;;;6.55;;
51686;SDS011;37774;52.192;4.584;2023-06-05T02:53:05;14.95;;;5.82;;
51686;SDS011;37774;52.192;4.584;2023-06-05T02:55:51;12.90;;;6.30;;
51686;SDS011;37774;52.192;4.584;2023-06-05T02:58:37;16.15;;;6.57;;
51686;SDS011;37774;52.192;4.584;2023-06-05T03:01:23;14.45;;;5.32;;
51686;SDS011;37774;52.192;4.584;2023-06-05T03:04:19;14.70;;;5.40;;
51686;SDS011;37774;52.192;4.584;2023-06-05T03:07:07;16.92;;;6.50;;
51686;SDS011;37774;52.192;4.584;2023-06-05T03:09:53;12.87;;;6.00;;
51686;SDS011;37774;52.192;4.584;2023-06-05T03:12:38;12.93;;;5.93;;
51686;SDS011;37774;52.192;4.584;2023-06-05T03:15:24;14.38;;;6.18;;
51686;SDS011;37774;52.192;4.584;2023-06-05T03:18:11;10.73;;;5.32;;
51686;SDS011;37774;52.192;4.584;2023-06-05T03:20:58;11.73;;;5.93;;
51686;SDS011;37774;52.192;4.584;2023-06-05T03:23:44;16.25;;;6.10;;
51686;SDS011;37774;52.192;4.584;2023-06-05T03:26:30;17.13;;;6.43;;
51686;SDS011;37774;52.192;4.584;2023-06-05T03:29:16;12.00;;;5.97;;
51686;SDS011;37774;52.192;4.584;2023-06-05T03:32:01;15.02;;;6.63;;
51686;SDS011;37774;52.192;4.584;2023-06-05T03:34:46;13.35;;;6.28;;
51686;SDS011;37774;52.192;4.584;2023-06-05T03:37:33;17.27;;;6.47;;
51686;SDS011;37774;52.192;4.584;2023-06-05T03:40:19;10.18;;;5.28;;
51686;SDS011;37774;52.192;4.584;2023-06-05T03:43:04;10.30;;;5.00;;
51686;SDS011;37774;52.192;4.584;2023-06-05T03:45:50;15.77;;;5.50;;
51686;SDS011;37774;52.192;4.584;2023-06-05T03:48:37;16.43;;;6.20;;
51686;SDS011;37774;52.192;4.584;2023-06-05T03:51:22;14.57;;;5.50;;
51686;SDS011;37774;52.192;4.584;2023-06-05T03:54:12;18.70;;;6.88;;
51686;SDS011;37774;52.192;4.584;2023-06-05T03:57:00;13.07;;;5.45;;
51686;SDS011;37774;52.192;4.584;2023-06-05T03:59:46;10.50;;;6.13;;
51686;SDS011;37774;52.192;4.584;2023-06-05T04:02:32;9.43;;;4.95;;
51686;SDS011;37774;52.192;4.584;2023-06-05T04:05:17;15.85;;;5.90;;
51686;SDS011;37774;52.192;4.584;2023-06-05T04:08:02;15.48;;;6.60;;
51686;SDS011;37774;52.192;4.584;2023-06-05T04:10:49;14.45;;;6.78;;
51686;SDS011;37774;52.192;4.584;2023-06-05T04:13:35;11.98;;;5.47;;
51686;SDS011;37774;52.192;4.584;2023-06-05T04:16:20;11.00;;;6.03;;
51686;SDS011;37774;52.192;4.584;2023-06-05T04:19:06;14.52;;;7.03;;
51686;SDS011;37774;52.192;4.584;2023-06-05T04:21:53;11.65;;;5.45;;
51686;SDS011;37774;52.192;4.584;2023-06-05T04:24:38;12.25;;;5.75;;
51686;SDS011;37774;52.192;4.584;2023-06-05T04:27:25;23.48;;;7.20;;
51686;SDS011;37774;52.192;4.584;2023-06-05T04:30:12;16.15;;;6.18;;
51686;SDS011;37774;52.192;4.584;2023-06-05T04:32:58;12.38;;;6.32;;
51686;SDS011;37774;52.192;4.584;2023-06-05T04:35:43;12.27;;;5.53;;
51686;SDS011;37774;52.192;4.584;2023-06-05T04:38:29;20.58;;;6.88;;
51686;SDS011;37774;52.192;4.584;2023-06-05T04:41:14;14.52;;;6.47;;
51686;SDS011;37774;52.192;4.584;2023-06-05T04:44:01;12.43;;;5.95;;
51686;SDS011;37774;52.192;4.584;2023-06-05T04:46:46;21.20;;;5.78;;
51686;SDS011;37774;52.192;4.584;2023-06-05T04:49:32;11.10;;;5.13;;
51686;SDS011;37774;52.192;4.584;2023-06-05T04:52:17;12.73;;;6.22;;
51686;SDS011;37774;52.192;4.584;2023-06-05T04:55:04;21.70;;;7.78;;
51686;SDS011;37774;52.192;4.584;2023-06-05T04:57:50;12.25;;;6.20;;
51686;SDS011;37774;52.192;4.584;2023-06-05T05:00:38;14.55;;;6.30;;
51686;SDS011;37774;52.192;4.584;2023-06-05T05:03:24;9.77;;;5.18;;
51686;SDS011;37774;52.192;4.584;2023-06-05T05:06:14;17.73;;;5.82;;
51686;SDS011;37774;52.192;4.584;2023-06-05T05:09:00;15.93;;;5.97;;
51686;SDS011;37774;52.192;4.584;2023-06-05T05:11:45;11.93;;;5.60;;
51686;SDS011;37774;52.192;4.584;2023-06-05T05:14:30;12.70;;;5.00;;
51686;SDS011;37774;52.192;4.584;2023-06-05T05:17:17;12.43;;;5.05;;
51686;SDS011;37774;52.192;4.584;2023-06-05T05:20:03;11.82;;;5.70;;
51686;SDS011;37774;52.192;4.584;2023-06-05T05:22:50;9.95;;;5.15;;
51686;SDS011;37774;52.192;4.584;2023-06-05T05:25:36;9.98;;;4.57;;
51686;SDS011;37774;52.192;4.584;2023-06-05T05:28:22;13.95;;;4.97;;
51686;SDS011;37774;52.192;4.584;2023-06-05T05:31:08;14.70;;;5.05;;
51686;SDS011;37774;52.192;4.584;2023-06-05T05:33:55;15.68;;;5.35;;
51686;SDS011;37774;52.192;4.584;2023-06-05T05:36:40;11.70;;;5.70;;
51686;SDS011;37774;52.192;4.584;2023-06-05T05:39:26;13.25;;;5.45;;
51686;SDS011;37774;52.192;4.584;2023-06-05T05:42:11;15.73;;;4.80;;
51686;SDS011;37774;52.192;4.584;2023-06-05T05:44:57;9.52;;;4.30;;
51686;SDS011;37774;52.192;4.584;2023-06-05T05:47:42;9.23;;;4.13;;
51686;SDS011;37774;52.192;4.584;2023-06-05T05:50:29;12.32;;;5.10;;
51686;SDS011;37774;52.192;4.584;2023-06-05T05:53:14;8.57;;;3.90;;
51686;SDS011;37774;52.192;4.584;2023-06-05T05:56:00;9.00;;;4.15;;
51686;SDS011;37774;52.192;4.584;2023-06-05T05:58:45;8.02;;;4.35;;
51686;SDS011;37774;52.192;4.584;2023-06-05T06:01:31;9.50;;;4.50;;
51686;SDS011;37774;52.192;4.584;2023-06-05T06:04:17;14.02;;;4.50;;
51686;SDS011;37774;52.192;4.584;2023-06-05T06:07:04;9.77;;;3.67;;
51686;SDS011;37774;52.192;4.584;2023-06-05T06:09:50;7.95;;;3.63;;
51686;SDS011;37774;52.192;4.584;2023-06-05T06:12:35;11.40;;;3.55;;
51686;SDS011;37774;52.192;4.584;2023-06-05T06:15:21;12.85;;;3.60;;
51686;SDS011;37774;52.192;4.584;2023-06-05T06:18:07;8.05;;;3.88;;
51686;SDS011;37774;52.192;4.584;2023-06-05T06:20:52;8.82;;;4.03;;
51686;SDS011;37774;52.192;4.584;2023-06-05T06:23:40;7.03;;;3.97;;
51686;SDS011;37774;52.192;4.584;2023-06-05T06:29:13;7.70;;;3.90;;
51686;SDS011;37774;52.192;4.584;2023-06-05T06:31:59;11.20;;;4.05;;
51686;SDS011;37774;52.192;4.584;2023-06-05T06:34:44;8.80;;;3.88;;
51686;SDS011;37774;52.192;4.584;2023-06-05T06:37:30;9.98;;;4.43;;
51686;SDS011;37774;52.192;4.584;2023-06-05T06:40:17;4.63;;;2.88;;
51686;SDS011;37774;52.192;4.584;2023-06-05T06:43:03;7.18;;;3.75;;
51686;SDS011;37774;52.192;4.584;2023-06-05T06:45:48;6.15;;;3.10;;
51686;SDS011;37774;52.192;4.584;2023-06-05T06:48:34;9.93;;;3.60;;
51686;SDS011;37774;52.192;4.584;2023-06-05T06:51:20;6.45;;;3.03;;
51686;SDS011;37774;52.192;4.584;2023-06-05T06:54:06;4.70;;;2.97;;
51686;SDS011;37774;52.192;4.584;2023-06-05T06:56:53;8.00;;;3.78;;
51686;SDS011;37774;52.192;4.584;2023-06-05T06:59:38;7.85;;;3.63;;
51686;SDS011;37774;52.192;4.584;2023-06-05T07:02:25;7.70;;;3.40;;
51686;SDS011;37774;52.192;4.584;2023-06-05T07:05:10;8.25;;;2.83;;
51686;SDS011;37774;52.192;4.584;2023-06-05T07:07:57;11.45;;;3.67;;
51686;SDS011;37774;52.192;4.584;2023-06-05T07:13:31;7.78;;;2.80;;
51686;SDS011;37774;52.192;4.584;2023-06-05T07:16:16;5.38;;;2.50;;
51686;SDS011;37774;52.192;4.584;2023-06-05T07:19:01;5.85;;;2.95;;
51686;SDS011;37774;52.192;4.584;2023-06-05T07:21:47;6.40;;;2.60;;
51686;SDS011;37774;52.192;4.584;2023-06-05T07:24:33;5.43;;;3.03;;
51686;SDS011;37774;52.192;4.584;2023-06-05T07:27:20;6.00;;;2.90;;
51686;SDS011;37774;52.192;4.584;2023-06-05T07:30:07;5.45;;;3.22;;
51686;SDS011;37774;52.192;4.584;2023-06-05T07:32:53;5.03;;;2.88;;
51686;SDS011;37774;52.192;4.584;2023-06-05T07:35:40;9.57;;;3.13;;
51686;SDS011;37774;52.192;4.584;2023-06-05T07:38:25;6.32;;;3.22;;
51686;SDS011;37774;52.192;4.584;2023-06-05T07:41:11;5.15;;;3.22;;
51686;SDS011;37774;52.192;4.584;2023-06-05T07:43:56;6.57;;;3.03;;
51686;SDS011;37774;52.192;4.584;2023-06-05T07:46:44;7.47;;;2.70;;
51686;SDS011;37774;52.192;4.584;2023-06-05T07:49:31;8.90;;;3.22;;
51686;SDS011;37774;52.192;4.584;2023-06-05T07:52:17;6.05;;;2.42;;
51686;SDS011;37774;52.192;4.584;2023-06-05T07:55:02;9.20;;;2.90;;
51686;SDS011;37774;52.192;4.584;2023-06-05T07:57:49;7.20;;;3.13;;
51686;SDS011;37774;52.192;4.584;2023-06-05T08:00:36;4.10;;;2.33;;
51686;SDS011;37774;52.192;4.584;2023-06-05T08:03:23;5.10;;;2.65;;
51686;SDS011;37774;52.192;4.584;2023-06-05T08:06:09;11.43;;;3.10;;
51686;SDS011;37774;52.192;4.584;2023-06-05T08:08:54;3.95;;;2.35;;
51686;SDS011;37774;52.192;4.584;2023-06-05T08:11:40;7.07;;;3.30;;
51686;SDS011;37774;52.192;4.584;2023-06-05T08:14:26;8.07;;;2.40;;
51686;SDS011;37774;52.192;4.584;2023-06-05T08:17:11;5.65;;;2.60;;
51686;SDS011;37774;52.192;4.584;2023-06-05T08:19:58;7.00;;;2.83;;
51686;SDS011;37774;52.192;4.584;2023-06-05T08:22:43;6.70;;;3.08;;
51686;SDS011;37774;52.192;4.584;2023-06-05T08:25:29;5.43;;;2.92;;
51686;SDS011;37774;52.192;4.584;2023-06-05T08:28:14;5.28;;;2.78;;
51686;SDS011;37774;52.192;4.584;2023-06-05T08:31:00;4.15;;;2.50;;
51686;SDS011;37774;52.192;4.584;2023-06-05T08:33:46;4.38;;;2.58;;
51686;SDS011;37774;52.192;4.584;2023-06-05T08:36:33;7.03;;;2.80;;
51686;SDS011;37774;52.192;4.584;2023-06-05T08:42:04;6.40;;;2.28;;
51686;SDS011;37774;52.192;4.584;2023-06-05T08:44:51;5.25;;;2.35;;
51686;SDS011;37774;52.192;4.584;2023-06-05T08:47:37;13.48;;;3.60;;
51686;SDS011;37774;52.192;4.584;2023-06-05T08:50:25;5.57;;;2.90;;
51686;SDS011;37774;52.192;4.584;2023-06-05T08:53:14;8.68;;;2.60;;
51686;SDS011;37774;52.192;4.584;2023-06-05T08:56:02;4.18;;;2.55;;
51686;SDS011;37774;52.192;4.584;2023-06-05T08:58:48;5.10;;;2.80;;
51686;SDS011;37774;52.192;4.584;2023-06-05T09:01:33;3.25;;;1.95;;
51686;SDS011;37774;52.192;4.584;2023-06-05T09:04:21;4.85;;;3.15;;
51686;SDS011;37774;52.192;4.584;2023-06-05T09:07:06;7.72;;;3.05;;
51686;SDS011;37774;52.192;4.584;2023-06-05T09:09:53;4.55;;;2.85;;
51686;SDS011;37774;52.192;4.584;2023-06-05T09:12:51;4.28;;;2.58;;
51686;SDS011;37774;52.192;4.584;2023-06-05T09:15:37;6.15;;;2.60;;
51686;SDS011;37774;52.192;4.584;2023-06-05T09:18:23;6.85;;;2.80;;
51686;SDS011;37774;52.192;4.584;2023-06-05T09:21:11;4.43;;;2.30;;
51686;SDS011;37774;52.192;4.584;2023-06-05T09:27:16;5.93;;;2.22;;
51686;SDS011;37774;52.192;4.584;2023-06-05T09:30:03;5.97;;;2.60;;
51686;SDS011;37774;52.192;4.584;2023-06-05T09:32:49;4.82;;;2.55;;
51686;SDS011;37774;52.192;4.584;2023-06-05T09:35:34;5.15;;;2.70;;
51686;SDS011;37774;52.192;4.584;2023-06-05T09:38:25;3.72;;;2.45;;
51686;SDS011;37774;52.192;4.584;2023-06-05T09:41:12;5.40;;;2.60;;
51686;SDS011;37774;52.192;4.584;2023-06-05T09:46:55;5.05;;;2.63;;
51686;SDS011;37774;52.192;4.584;2023-06-05T09:49:46;4.10;;;2.58;;
51686;SDS011;37774;52.192;4.584;2023-06-05T09:52:32;5.32;;;3.10;;
51686;SDS011;37774;52.192;4.584;2023-06-05T09:55:20;6.20;;;2.63;;
51686;SDS011;37774;52.192;4.584;2023-06-05T10:00:59;5.60;;;3.33;;
51686;SDS011;37774;52.192;4.584;2023-06-05T10:03:48;5.53;;;3.05;;
51686;SDS011;37774;52.192;4.584;2023-06-05T10:06:36;5.32;;;3.15;;
51686;SDS011;37774;52.192;4.584;2023-06-05T10:09:23;13.23;;;3.20;;
51686;SDS011;37774;52.192;4.584;2023-06-05T10:12:10;4.70;;;2.65;;
51686;SDS011;37774;52.192;4.584;2023-06-05T10:14:57;5.93;;;2.90;;
51686;SDS011;37774;52.192;4.584;2023-06-05T10:17:44;7.55;;;3.58;;
51686;SDS011;37774;52.192;4.584;2023-06-05T10:20:34;8.57;;;2.95;;
51686;SDS011;37774;52.192;4.584;2023-06-05T10:23:21;4.10;;;2.60;;
51686;SDS011;37774;52.192;4.584;2023-06-05T10:26:10;5.20;;;3.10;;
51686;SDS011;37774;52.192;4.584;2023-06-05T10:29:06;7.63;;;3.17;;
51686;SDS011;37774;52.192;4.584;2023-06-05T10:32:02;9.02;;;2.58;;
51686;SDS011;37774;52.192;4.584;2023-06-05T10:34:55;6.82;;;3.53;;
51686;SDS011;37774;52.192;4.584;2023-06-05T10:37:55;7.68;;;3.20;;
51686;SDS011;37774;52.192;4.584;2023-06-05T10:40:52;4.93;;;3.08;;
51686;SDS011;37774;52.192;4.584;2023-06-05T10:43:45;5.10;;;3.00;;
51686;SDS011;37774;52.192;4.584;2023-06-05T10:46:32;11.52;;;3.28;;
51686;SDS011;37774;52.192;4.584;2023-06-05T10:49:18;7.17;;;3.10;;
51686;SDS011;37774;52.192;4.584;2023-06-05T10:52:05;8.45;;;3.35;;
51686;SDS011;37774;52.192;4.584;2023-06-05T10:54:53;6.35;;;3.25;;
51686;SDS011;37774;52.192;4.584;2023-06-05T11:01:16;6.40;;;3.28;;
51686;SDS011;37774;52.192;4.584;2023-06-05T11:04:02;7.85;;;3.55;;
51686;SDS011;37774;52.192;4.584;2023-06-05T11:10:06;5.15;;;2.45;;
51686;SDS011;37774;52.192;4.584;2023-06-05T11:12:56;8.55;;;2.97;;
51686;SDS011;37774;52.192;4.584;2023-06-05T11:15:43;8.70;;;3.95;;
51686;SDS011;37774;52.192;4.584;2023-06-05T11:18:32;7.43;;;2.90;;
51686;SDS011;37774;52.192;4.584;2023-06-05T11:21:19;5.22;;;2.78;;
51686;SDS011;37774;52.192;4.584;2023-06-05T11:24:15;4.93;;;2.90;;
51686;SDS011;37774;52.192;4.584;2023-06-05T11:27:01;6.28;;;3.40;;
51686;SDS011;37774;52.192;4.584;2023-06-05T11:29:47;7.10;;;3.60;;
51686;SDS011;37774;52.192;4.584;2023-06-05T11:32:36;7.20;;;3.25;;
51686;SDS011;37774;52.192;4.584;2023-06-05T11:35:22;5.90;;;3.15;;
51686;SDS011;37774;52.192;4.584;2023-06-05T11:38:08;6.57;;;3.42;;
51686;SDS011;37774;52.192;4.584;2023-06-05T11:40:57;4.88;;;2.35;;
51686;SDS011;37774;52.192;4.584;2023-06-05T11:43:42;4.88;;;2.65;;
51686;SDS011;37774;52.192;4.584;2023-06-05T11:46:37;12.48;;;2.90;;
51686;SDS011;37774;52.192;4.584;2023-06-05T11:49:24;6.85;;;3.28;;
51686;SDS011;37774;52.192;4.584;2023-06-05T11:52:17;5.97;;;3.38;;
51686;SDS011;37774;52.192;4.584;2023-06-05T11:55:11;8.05;;;2.92;;
51686;SDS011;37774;52.192;4.584;2023-06-05T11:57:59;4.03;;;2.45;;
51686;SDS011;37774;52.192;4.584;2023-06-05T12:00:45;8.25;;;3.20;;
51686;SDS011;37774;52.192;4.584;2023-06-05T12:03:30;8.20;;;2.95;;
51686;SDS011;37774;52.192;4.584;2023-06-05T12:06:16;5.70;;;3.35;;
51686;SDS011;37774;52.192;4.584;2023-06-05T12:09:08;7.15;;;3.63;;
51686;SDS011;37774;52.192;4.584;2023-06-05T12:12:04;6.93;;;3.60;;
51686;SDS011;37774;52.192;4.584;2023-06-05T12:14:52;4.30;;;2.83;;
51686;SDS011;37774;52.192;4.584;2023-06-05T12:17:39;8.43;;;3.75;;
51686;SDS011;37774;52.192;4.584;2023-06-05T12:20:24;5.43;;;2.80;;
51686;SDS011;37774;52.192;4.584;2023-06-05T12:23:16;7.00;;;3.95;;
51686;SDS011;37774;52.192;4.584;2023-06-05T12:26:03;8.70;;;3.30;;
51686;SDS011;37774;52.192;4.584;2023-06-05T12:28:49;4.25;;;2.85;;
51686;SDS011;37774;52.192;4.584;2023-06-05T12:31:49;13.23;;;3.33;;
51686;SDS011;37774;52.192;4.584;2023-06-05T12:34:38;5.40;;;3.10;;
51686;SDS011;37774;52.192;4.584;2023-06-05T12:37:28;5.05;;;3.00;;
51686;SDS011;37774;52.192;4.584;2023-06-05T12:43:14;5.22;;;2.72;;
51686;SDS011;37774;52.192;4.584;2023-06-05T12:46:01;9.05;;;3.75;;
51686;SDS011;37774;52.192;4.584;2023-06-05T12:48:49;4.07;;;1.77;;
51686;SDS011;37774;52.192;4.584;2023-06-05T12:51:34;4.35;;;2.72;;
51686;SDS011;37774;52.192;4.584;2023-06-05T12:54:20;7.63;;;2.28;;
51686;SDS011;37774;52.192;4.584;2023-06-05T12:57:06;7.88;;;2.10;;
51686;SDS011;37774;52.192;4.584;2023-06-05T12:59:52;9.82;;;2.13;;
51686;SDS011;37774;52.192;4.584;2023-06-05T13:02:40;5.20;;;1.65;;
51686;SDS011;37774;52.192;4.584;2023-06-05T13:05:28;4.78;;;1.90;;
51686;SDS011;37774;52.192;4.584;2023-06-05T13:08:15;8.55;;;1.67;;
51686;SDS011;37774;52.192;4.584;2023-06-05T13:11:00;14.13;;;1.98;;
51686;SDS011;37774;52.192;4.584;2023-06-05T13:13:46;12.18;;;2.17;;
51686;SDS011;37774;52.192;4.584;2023-06-05T13:16:31;7.18;;;2.08;;
51686;SDS011;37774;52.192;4.584;2023-06-05T13:19:17;6.95;;;2.05;;
51686;SDS011;37774;52.192;4.584;2023-06-05T13:22:03;12.93;;;3.00;;
51686;SDS011;37774;52.192;4.584;2023-06-05T13:27:34;10.25;;;2.60;;
51686;SDS011;37774;52.192;4.584;2023-06-05T13:30:20;5.07;;;1.80;;
51686;SDS011;37774;52.192;4.584;2023-06-05T13:33:05;5.47;;;1.98;;
51686;SDS011;37774;52.192;4.584;2023-06-05T13:35:51;11.85;;;2.80;;
51686;SDS011;37774;52.192;4.584;2023-06-05T13:38:38;5.25;;;1.83;;
51686;SDS011;37774;52.192;4.584;2023-06-05T13:41:23;4.55;;;2.20;;
51686;SDS011;37774;52.192;4.584;2023-06-05T13:44:09;7.18;;;2.17;;
51686;SDS011;37774;52.192;4.584;2023-06-05T13:46:55;8.30;;;2.28;;
51686;SDS011;37774;52.192;4.584;2023-06-05T13:49:41;5.85;;;2.13;;
51686;SDS011;37774;52.192;4.584;2023-06-05T13:52:26;4.57;;;2.53;;
51686;SDS011;37774;52.192;4.584;2023-06-05T13:55:13;4.00;;;2.28;;
51686;SDS011;37774;52.192;4.584;2023-06-05T14:00:45;6.80;;;1.98;;
51686;SDS011;37774;52.192;4.584;2023-06-05T14:03:31;12.50;;;2.75;;
51686;SDS011;37774;52.192;4.584;2023-06-05T14:06:17;8.88;;;2.38;;
51686;SDS011;37774;52.192;4.584;2023-06-05T14:09:02;13.65;;;2.80;;
51686;SDS011;37774;52.192;4.584;2023-06-05T14:11:49;8.63;;;2.65;;
51686;SDS011;37774;52.192;4.584;2023-06-05T14:14:34;11.40;;;2.55;;
51686;SDS011;37774;52.192;4.584;2023-06-05T14:17:20;12.60;;;2.40;;
51686;SDS011;37774;52.192;4.584;2023-06-05T14:20:06;7.75;;;2.70;;
51686;SDS011;37774;52.192;4.584;2023-06-05T14:22:52;9.48;;;2.88;;
51686;SDS011;37774;52.192;4.584;2023-06-05T14:25:38;6.45;;;2.78;;
51686;SDS011;37774;52.192;4.584;2023-06-05T14:28:24;9.45;;;2.90;;
51686;SDS011;37774;52.192;4.584;2023-06-05T14:31:11;11.38;;;2.53;;
51686;SDS011;37774;52.192;4.584;2023-06-05T14:33:57;5.80;;;2.30;;
51686;SDS011;37774;52.192;4.584;2023-06-05T14:36:43;7.22;;;2.90;;
51686;SDS011;37774;52.192;4.584;2023-06-05T14:39:34;7.20;;;2.90;;
51686;SDS011;37774;52.192;4.584;2023-06-05T14:42:19;5.90;;;2.58;;
51686;SDS011;37774;52.192;4.584;2023-06-05T14:45:07;9.25;;;2.67;;
51686;SDS011;37774;52.192;4.584;2023-06-05T14:47:53;6.60;;;2.42;;
51686;SDS011;37774;52.192;4.584;2023-06-05T14:50:38;6.00;;;2.08;;
51686;SDS011;37774;52.192;4.584;2023-06-05T14:53:24;6.93;;;2.50;;
51686;SDS011;37774;52.192;4.584;2023-06-05T14:56:11;7.45;;;2.55;;
51686;SDS011;37774;52.192;4.584;2023-06-05T14:58:56;12.75;;;2.30;;
51686;SDS011;37774;52.192;4.584;2023-06-05T15:01:43;15.05;;;2.58;;
51686;SDS011;37774;52.192;4.584;2023-06-05T15:04:28;10.93;;;2.50;;
51686;SDS011;37774;52.192;4.584;2023-06-05T15:07:17;5.40;;;2.17;;
51686;SDS011;37774;52.192;4.584;2023-06-05T15:10:03;7.07;;;2.25;;
51686;SDS011;37774;52.192;4.584;2023-06-05T15:12:49;10.93;;;2.65;;
51686;SDS011;37774;52.192;4.584;2023-06-05T15:15:39;8.15;;;2.08;;
51686;SDS011;37774;52.192;4.584;2023-06-05T15:18:26;9.98;;;2.90;;
51686;SDS011;37774;52.192;4.584;2023-06-05T15:21:12;15.88;;;2.08;;
51686;SDS011;37774;52.192;4.584;2023-06-05T15:23:57;7.40;;;2.25;;
51686;SDS011;37774;52.192;4.584;2023-06-05T15:26:43;11.13;;;2.60;;
51686;SDS011;37774;52.192;4.584;2023-06-05T15:29:28;4.45;;;2.30;;
51686;SDS011;37774;52.192;4.584;2023-06-05T15:32:14;4.75;;;2.47;;
51686;SDS011;37774;52.192;4.584;2023-06-05T15:35:01;7.88;;;2.70;;
51686;SDS011;37774;52.192;4.584;2023-06-05T15:37:46;7.13;;;2.58;;
51686;SDS011;37774;52.192;4.584;2023-06-05T15:40:32;10.00;;;2.90;;
51686;SDS011;37774;52.192;4.584;2023-06-05T15:43:17;8.07;;;2.78;;
51686;SDS011;37774;52.192;4.584;2023-06-05T15:46:03;5.57;;;2.70;;
51686;SDS011;37774;52.192;4.584;2023-06-05T15:48:48;11.13;;;2.67;;
51686;SDS011;37774;52.192;4.584;2023-06-05T15:51:35;10.35;;;2.55;;
51686;SDS011;37774;52.192;4.584;2023-06-05T15:54:21;8.63;;;2.90;;
51686;SDS011;37774;52.192;4.584;2023-06-05T15:57:07;15.23;;;2.67;;
51686;SDS011;37774;52.192;4.584;2023-06-05T15:59:52;11.60;;;2.88;;
51686;SDS011;37774;52.192;4.584;2023-06-05T16:02:38;6.53;;;2.58;;
51686;SDS011;37774;52.192;4.584;2023-06-05T16:05:23;7.70;;;2.55;;
51686;SDS011;37774;52.192;4.584;2023-06-05T16:08:10;16.40;;;3.08;;
51686;SDS011;37774;52.192;4.584;2023-06-05T16:10:56;8.48;;;2.42;;
51686;SDS011;37774;52.192;4.584;2023-06-05T16:13:44;11.98;;;2.35;;
51686;SDS011;37774;52.192;4.584;2023-06-05T16:16:30;11.93;;;2.50;;
51686;SDS011;37774;52.192;4.584;2023-06-05T16:19:15;15.18;;;2.83;;
51686;SDS011;37774;52.192;4.584;2023-06-05T16:22:01;9.65;;;3.08;;
51686;SDS011;37774;52.192;4.584;2023-06-05T16:24:48;10.88;;;2.90;;
51686;SDS011;37774;52.192;4.584;2023-06-05T16:27:33;7.30;;;3.28;;
51686;SDS011;37774;52.192;4.584;2023-06-05T16:30:18;5.55;;;2.80;;
51686;SDS011;37774;52.192;4.584;2023-06-05T16:33:04;12.70;;;2.83;;
51686;SDS011;37774;52.192;4.584;2023-06-05T16:35:49;10.15;;;2.85;;
51686;SDS011;37774;52.192;4.584;2023-06-05T16:38:35;6.43;;;2.88;;
51686;SDS011;37774;52.192;4.584;2023-06-05T16:41:22;10.40;;;3.05;;
51686;SDS011;37774;52.192;4.584;2023-06-05T16:44:07;14.48;;;4.00;;
51686;SDS011;37774;52.192;4.584;2023-06-05T16:46:55;14.82;;;3.70;;
51686;SDS011;37774;52.192;4.584;2023-06-05T16:49:40;9.65;;;3.85;;
51686;SDS011;37774;52.192;4.584;2023-06-05T16:52:25;14.23;;;2.47;;
51686;SDS011;37774;52.192;4.584;2023-06-05T16:55:11;11.57;;;3.28;;
51686;SDS011;37774;52.192;4.584;2023-06-05T16:57:58;6.10;;;3.00;;
51686;SDS011;37774;52.192;4.584;2023-06-05T17:00:43;8.30;;;2.45;;
51686;SDS011;37774;52.192;4.584;2023-06-05T17:03:29;10.68;;;2.83;;
51686;SDS011;37774;52.192;4.584;2023-06-05T17:06:14;7.88;;;2.80;;
51686;SDS011;37774;52.192;4.584;2023-06-05T17:09:00;6.28;;;2.40;;
51686;SDS011;37774;52.192;4.584;2023-06-05T17:11:46;9.15;;;3.35;;
51686;SDS011;37774;52.192;4.584;2023-06-05T17:14:33;10.63;;;3.10;;